sensor_id;sensor_type;location;lat;lon;timestamp;pressure;altitude;pressure_sealevel;temperature;humidity
41624;BME280;27319;50.306;18.926;2023-05-19T00:02:27;99132.13;;;9.48;90.49
41624;BME280;27319;50.306;18.926;2023-05-19T00:05:35;99123.91;;;9.40;90.68
41624;BME280;27319;50.306;18.926;2023-05-19T00:08:36;99123.41;;;9.46;89.96
41624;BME280;27319;50.306;18.926;2023-05-19T00:11:42;99123.41;;;9.46;90.65
41624;BME280;27319;50.306;18.926;2023-05-19T00:15:03;99124.91;;;9.39;90.64
41624;BME280;27319;50.306;18.926;2023-05-19T00:19:04;99110.69;;;9.29;91.26
41624;BME280;27319;50.306;18.926;2023-05-19T00:22:44;99124.03;;;9.20;91.98
41624;BME280;27319;50.306;18.926;2023-05-19T00:26:05;99129.56;;;9.28;92.10
41624;BME280;27319;50.306;18.926;2023-05-19T00:30:06;99121.81;;;9.34;91.58
41624;BME280;27319;50.306;18.926;2023-05-19T00:33:47;99111.69;;;9.38;91.19
41624;BME280;27319;50.306;18.926;2023-05-19T00:36:47;99117.75;;;9.40;91.34
41624;BME280;27319;50.306;18.926;2023-05-19T00:39:49;99109.28;;;9.44;90.67
41624;BME280;27319;50.306;18.926;2023-05-19T00:42:49;99107.59;;;9.43;90.74
41624;BME280;27319;50.306;18.926;2023-05-19T00:45:50;99102.22;;;9.43;90.60
41624;BME280;27319;50.306;18.926;2023-05-19T00:49:11;99112.50;;;9.38;90.95
41624;BME280;27319;50.306;18.926;2023-05-19T00:53:08;99104.78;;;9.45;90.73
41624;BME280;27319;50.306;18.926;2023-05-19T00:56:09;99104.63;;;9.46;90.74
41624;BME280;27319;50.306;18.926;2023-05-19T00:59:30;99095.75;;;9.46;90.04
41624;BME280;27319;50.306;18.926;2023-05-19T01:03:31;99091.50;;;9.34;91.69
41624;BME280;27319;50.306;18.926;2023-05-19T01:07:12;99100.41;;;9.44;90.79
41624;BME280;27319;50.306;18.926;2023-05-19T01:10:12;99087.97;;;9.43;91.54
41624;BME280;27319;50.306;18.926;2023-05-19T01:13:13;99084.72;;;9.39;91.41
41624;BME280;27319;50.306;18.926;2023-05-19T01:16:24;99079.94;;;9.33;91.63
41624;BME280;27319;50.306;18.926;2023-05-19T01:19:51;99086.72;;;9.28;92.01
41624;BME280;27319;50.306;18.926;2023-05-19T01:33:23;99064.72;;;9.15;92.88
41624;BME280;27319;50.306;18.926;2023-05-19T01:36:26;99062.44;;;9.10;93.30
41624;BME280;27319;50.306;18.926;2023-05-19T01:39:27;99072.25;;;8.91;95.06
41624;BME280;27319;50.306;18.926;2023-05-19T01:42:49;99081.03;;;9.02;94.38
41624;BME280;27319;50.306;18.926;2023-05-19T01:46:25;99068.38;;;9.23;92.38
41624;BME280;27319;50.306;18.926;2023-05-19T01:49:25;99064.84;;;9.23;92.21
41624;BME280;27319;50.306;18.926;2023-05-19T01:52:26;99059.91;;;9.18;92.53
41624;BME280;27319;50.306;18.926;2023-05-19T01:55:27;99072.88;;;9.23;92.06
41624;BME280;27319;50.306;18.926;2023-05-19T01:58:45;99061.16;;;9.14;92.37
41624;BME280;27319;50.306;18.926;2023-05-19T02:01:56;99067.78;;;9.10;92.67
41624;BME280;27319;50.306;18.926;2023-05-19T02:05:04;99051.72;;;9.20;92.18
41624;BME280;27319;50.306;18.926;2023-05-19T02:08:13;99050.16;;;9.17;92.51
41624;BME280;27319;50.306;18.926;2023-05-19T02:11:26;99051.72;;;9.10;93.44
41624;BME280;27319;50.306;18.926;2023-05-19T02:15:26;99046.78;;;9.15;92.71
41624;BME280;27319;50.306;18.926;2023-05-19T02:19:29;99050.31;;;9.06;93.85
41624;BME280;27319;50.306;18.926;2023-05-19T02:22:31;99049.16;;;8.99;94.04
41624;BME280;27319;50.306;18.926;2023-05-19T02:25:32;99046.66;;;9.07;93.65
41624;BME280;27319;50.306;18.926;2023-05-19T02:28:53;99033.69;;;9.12;93.11
41624;BME280;27319;50.306;18.926;2023-05-19T02:32:49;99033.25;;;9.07;93.06
41624;BME280;27319;50.306;18.926;2023-05-19T02:35:50;99026.06;;;8.98;93.87
41624;BME280;27319;50.306;18.926;2023-05-19T02:38:51;99024.09;;;9.00;93.52
41624;BME280;27319;50.306;18.926;2023-05-19T02:41:52;99025.50;;;9.14;92.76
41624;BME280;27319;50.306;18.926;2023-05-19T02:45:13;99028.59;;;9.09;93.11
41624;BME280;27319;50.306;18.926;2023-05-19T02:48:30;99026.06;;;9.08;92.88
41624;BME280;27319;50.306;18.926;2023-05-19T02:51:31;99034.81;;;9.00;93.56
41624;BME280;27319;50.306;18.926;2023-05-19T02:54:33;99039.63;;;9.06;93.01
41624;BME280;27319;50.306;18.926;2023-05-19T02:57:34;99046.47;;;8.99;93.68
41624;BME280;27319;50.306;18.926;2023-05-19T03:00:35;99050.16;;;8.98;94.16
41624;BME280;27319;50.306;18.926;2023-05-19T03:03:36;99050.03;;;9.00;93.32
41624;BME280;27319;50.306;18.926;2023-05-19T03:06:57;99043.25;;;9.05;92.87
41624;BME280;27319;50.306;18.926;2023-05-19T03:10:22;99039.56;;;8.97;94.27
41624;BME280;27319;50.306;18.926;2023-05-19T03:13:22;99034.38;;;9.05;92.91
41624;BME280;27319;50.306;18.926;2023-05-19T03:16:24;99044.66;;;9.09;92.61
41624;BME280;27319;50.306;18.926;2023-05-19T03:19:24;99048.47;;;9.07;93.11
41624;BME280;27319;50.306;18.926;2023-05-19T03:22:25;99051.44;;;9.04;93.54
41624;BME280;27319;50.306;18.926;2023-05-19T03:25:26;99050.59;;;9.13;92.67
41624;BME280;27319;50.306;18.926;2023-05-19T03:28:27;99057.63;;;9.04;93.97
41624;BME280;27319;50.306;18.926;2023-05-19T03:31:28;99059.59;;;9.02;93.93
41624;BME280;27319;50.306;18.926;2023-05-19T03:34:30;99050.47;;;9.14;92.43
41624;BME280;27319;50.306;18.926;2023-05-19T03:37:31;99049.63;;;9.23;92.16
41624;BME280;27319;50.306;18.926;2023-05-19T03:40:33;99052.31;;;9.23;91.64
41624;BME280;27319;50.306;18.926;2023-05-19T03:43:33;99045.66;;;9.08;93.72
41624;BME280;27319;50.306;18.926;2023-05-19T03:46:35;99047.78;;;9.14;92.92
41624;BME280;27319;50.306;18.926;2023-05-19T03:49:35;99044.53;;;9.11;93.31
41624;BME280;27319;50.306;18.926;2023-05-19T03:52:37;99049.63;;;9.23;92.30
41624;BME280;27319;50.306;18.926;2023-05-19T03:55:39;99047.22;;;9.11;93.34
41624;BME280;27319;50.306;18.926;2023-05-19T03:58:40;99050.03;;;9.09;93.63
41624;BME280;27319;50.306;18.926;2023-05-19T04:01:44;99046.66;;;9.07;94.13
41624;BME280;27319;50.306;18.926;2023-05-19T04:04:46;99060.75;;;9.19;92.89
41624;BME280;27319;50.306;18.926;2023-05-19T04:07:46;99061.59;;;9.10;94.22
41624;BME280;27319;50.306;18.926;2023-05-19T04:10:48;99065.28;;;9.18;93.38
41624;BME280;27319;50.306;18.926;2023-05-19T04:13:48;99066.66;;;9.22;93.21
41624;BME280;27319;50.306;18.926;2023-05-19T04:16:49;99069.34;;;9.22;94.00
41624;BME280;27319;50.306;18.926;2023-05-19T04:19:53;99071.59;;;9.17;94.23
41624;BME280;27319;50.306;18.926;2023-05-19T04:22:55;99062.16;;;9.23;94.11
41624;BME280;27319;50.306;18.926;2023-05-19T04:25:55;99062.44;;;9.20;94.79
41624;BME280;27319;50.306;18.926;2023-05-19T04:28:58;99064.28;;;9.19;93.84
41624;BME280;27319;50.306;18.926;2023-05-19T04:32:18;99064.16;;;9.21;94.33
41624;BME280;27319;50.306;18.926;2023-05-19T04:35:20;99071.91;;;9.33;92.87
41624;BME280;27319;50.306;18.926;2023-05-19T04:38:21;99062.16;;;9.32;94.10
41624;BME280;27319;50.306;18.926;2023-05-19T04:41:42;99062.72;;;9.45;93.90
41624;BME280;27319;50.306;18.926;2023-05-19T04:45:23;99057.22;;;9.47;92.80
41624;BME280;27319;50.306;18.926;2023-05-19T04:48:26;99064.72;;;9.43;94.20
41624;BME280;27319;50.306;18.926;2023-05-19T04:51:50;99066.69;;;9.41;93.12
41624;BME280;27319;50.306;18.926;2023-05-19T04:55:31;99074.88;;;9.49;93.93
41624;BME280;27319;50.306;18.926;2023-05-19T04:58:32;99075.44;;;9.53;93.44
41624;BME280;27319;50.306;18.926;2023-05-19T05:01:34;99082.34;;;9.55;93.68
41624;BME280;27319;50.306;18.926;2023-05-19T05:04:59;99079.94;;;9.62;92.56
41624;BME280;27319;50.306;18.926;2023-05-19T05:08:40;99068.25;;;9.53;93.60
41624;BME280;27319;50.306;18.926;2023-05-19T05:11:42;99074.03;;;9.58;93.35
41624;BME280;27319;50.306;18.926;2023-05-19T05:15:04;99076.13;;;9.64;93.22
41624;BME280;27319;50.306;18.926;2023-05-19T05:19:05;99073.88;;;9.69;93.28
41624;BME280;27319;50.306;18.926;2023-05-19T05:22:46;99071.59;;;9.65;94.23
41624;BME280;27319;50.306;18.926;2023-05-19T05:25:47;99074.44;;;9.63;91.95
41624;BME280;27319;50.306;18.926;2023-05-19T05:28:49;99078.09;;;9.62;95.27
41624;BME280;27319;50.306;18.926;2023-05-19T05:31:49;99072.16;;;9.68;94.91
41624;BME280;27319;50.306;18.926;2023-05-19T05:34:51;99074.56;;;9.71;94.10
41624;BME280;27319;50.306;18.926;2023-05-19T05:37:51;99079.38;;;9.68;95.00
41624;BME280;27319;50.306;18.926;2023-05-19T05:41:12;99085.31;;;9.71;95.46
41624;BME280;27319;50.306;18.926;2023-05-19T05:45:13;99093.34;;;9.71;95.12
41624;BME280;27319;50.306;18.926;2023-05-19T05:49:14;99082.19;;;9.66;95.71
41624;BME280;27319;50.306;18.926;2023-05-19T05:53:18;99079.09;;;9.71;95.55
41624;BME280;27319;50.306;18.926;2023-05-19T05:57:16;99076.41;;;9.71;94.31
41624;BME280;27319;50.306;18.926;2023-05-19T06:01:17;99090.34;;;9.74;96.93
41624;BME280;27319;50.306;18.926;2023-05-19T06:05:18;99098.25;;;9.76;96.27
41624;BME280;27319;50.306;18.926;2023-05-19T06:09:18;99108.28;;;9.83;95.88
41624;BME280;27319;50.306;18.926;2023-05-19T06:12:59;99105.72;;;9.91;94.05
41624;BME280;27319;50.306;18.926;2023-05-19T06:16:20;99097.41;;;9.94;94.66
41624;BME280;27319;50.306;18.926;2023-05-19T06:20:21;99102.34;;;9.99;95.77
41624;BME280;27319;50.306;18.926;2023-05-19T06:24:22;99098.66;;;10.09;94.62
41624;BME280;27319;50.306;18.926;2023-05-19T06:28:23;99101.94;;;10.13;95.83
41624;BME280;27319;50.306;18.926;2023-05-19T06:32:24;99113.91;;;10.18;96.24
41624;BME280;27319;50.306;18.926;2023-05-19T06:36:25;99110.66;;;10.24;96.01
41624;BME280;27319;50.306;18.926;2023-05-19T06:40:26;99114.44;;;10.31;94.33
41624;BME280;27319;50.306;18.926;2023-05-19T06:44:27;99115.44;;;10.30;94.94
41624;BME280;27319;50.306;18.926;2023-05-19T06:48:27;99113.44;;;10.32;95.21
41624;BME280;27319;50.306;18.926;2023-05-19T06:52:28;99113.16;;;10.35;95.40
41624;BME280;27319;50.306;18.926;2023-05-19T06:56:29;99107.63;;;10.46;94.55
41624;BME280;27319;50.306;18.926;2023-05-19T07:00:30;99102.84;;;10.40;94.62
41624;BME280;27319;50.306;18.926;2023-05-19T07:04:11;99104.81;;;10.48;94.88
41624;BME280;27319;50.306;18.926;2023-05-19T07:07:12;99087.38;;;10.61;95.63
41624;BME280;27319;50.306;18.926;2023-05-19T07:10:33;99100.03;;;10.68;95.30
41624;BME280;27319;50.306;18.926;2023-05-19T07:14:14;99105.06;;;10.81;95.63
41624;BME280;27319;50.306;18.926;2023-05-19T07:17:34;99097.09;;;10.89;96.09
41624;BME280;27319;50.306;18.926;2023-05-19T07:21:35;99093.41;;;10.99;95.73
41624;BME280;27319;50.306;18.926;2023-05-19T07:25:36;99099.78;;;11.16;96.53
41624;BME280;27319;50.306;18.926;2023-05-19T07:29:37;99101.91;;;12.09;96.14
41624;BME280;27319;50.306;18.926;2023-05-19T07:33:38;99096.94;;;12.48;92.02
41624;BME280;27319;50.306;18.926;2023-05-19T07:37:39;99111.03;;;12.67;88.62
41624;BME280;27319;50.306;18.926;2023-05-19T07:41:40;99122.47;;;12.44;88.64
41624;BME280;27319;50.306;18.926;2023-05-19T07:45:40;99116.03;;;12.37;90.37
41624;BME280;27319;50.306;18.926;2023-05-19T07:49:21;99119.63;;;12.20;90.14
41624;BME280;27319;50.306;18.926;2023-05-19T07:52:42;99113.72;;;12.16;89.39
41624;BME280;27319;50.306;18.926;2023-05-19T07:56:43;99110.50;;;12.13;89.97
41624;BME280;27319;50.306;18.926;2023-05-19T08:00:24;99111.81;;;12.09;89.98
41624;BME280;27319;50.306;18.926;2023-05-19T08:03:25;99117.13;;;12.01;90.20
41624;BME280;27319;50.306;18.926;2023-05-19T08:06:46;99115.34;;;11.92;89.72
41624;BME280;27319;50.306;18.926;2023-05-19T08:10:47;99122.25;;;12.12;89.14
41624;BME280;27319;50.306;18.926;2023-05-19T08:14:28;99118.13;;;12.00;89.57
41624;BME280;27319;50.306;18.926;2023-05-19T08:17:50;99115.88;;;11.95;89.18
41624;BME280;27319;50.306;18.926;2023-05-19T08:21:51;99121.50;;;12.02;89.96
41624;BME280;27319;50.306;18.926;2023-05-19T08:25:52;99124.03;;;12.03;90.28
41624;BME280;27319;50.306;18.926;2023-05-19T08:29:53;99132.59;;;11.99;90.73
41624;BME280;27319;50.306;18.926;2023-05-19T08:33:53;99136.13;;;11.82;90.65
41624;BME280;27319;50.306;18.926;2023-05-19T08:37:54;99131.06;;;11.79;90.05
41624;BME280;27319;50.306;18.926;2023-05-19T08:41:55;99135.38;;;11.72;92.17
41624;BME280;27319;50.306;18.926;2023-05-19T08:45:56;99134.28;;;11.82;91.10
41624;BME280;27319;50.306;18.926;2023-05-19T08:50:00;99133.13;;;11.85;91.53
41624;BME280;27319;50.306;18.926;2023-05-19T08:53:39;99131.13;;;11.87;90.92
41624;BME280;27319;50.306;18.926;2023-05-19T08:57:03;99118.59;;;11.78;90.43
41624;BME280;27319;50.306;18.926;2023-05-19T09:01:04;99119.81;;;11.83;90.50
41624;BME280;27319;50.306;18.926;2023-05-19T09:04:45;99127.59;;;11.86;90.40
41624;BME280;27319;50.306;18.926;2023-05-19T09:07:47;99124.03;;;11.86;91.39
41624;BME280;27319;50.306;18.926;2023-05-19T09:11:09;99128.19;;;11.98;91.62
41624;BME280;27319;50.306;18.926;2023-05-19T09:15:09;99130.78;;;12.07;90.59
41624;BME280;27319;50.306;18.926;2023-05-19T09:19:13;99133.03;;;12.12;91.23
41624;BME280;27319;50.306;18.926;2023-05-19T09:23:15;99135.50;;;12.05;90.67
41624;BME280;27319;50.306;18.926;2023-05-19T09:27:20;99138.72;;;12.09;90.25
41624;BME280;27319;50.306;18.926;2023-05-19T09:31:03;99138.56;;;12.10;89.92
41624;BME280;27319;50.306;18.926;2023-05-19T09:35:02;99133.03;;;12.12;90.41
41624;BME280;27319;50.306;18.926;2023-05-19T09:39:11;99138.16;;;12.23;89.80
41624;BME280;27319;50.306;18.926;2023-05-19T09:42:35;99135.00;;;12.10;89.78
41624;BME280;27319;50.306;18.926;2023-05-19T09:46:34;99134.38;;;12.16;90.04
41624;BME280;27319;50.306;18.926;2023-05-19T09:50:35;99131.44;;;12.27;89.97
41624;BME280;27319;50.306;18.926;2023-05-19T09:54:36;99132.19;;;12.37;90.92
41624;BME280;27319;50.306;18.926;2023-05-19T09:58:37;99120.53;;;12.54;90.69
41624;BME280;27319;50.306;18.926;2023-05-19T10:02:39;99121.94;;;12.66;88.82
41624;BME280;27319;50.306;18.926;2023-05-19T10:06:41;99123.59;;;12.59;90.16
41624;BME280;27319;50.306;18.926;2023-05-19T10:10:08;99117.56;;;12.65;89.25
41624;BME280;27319;50.306;18.926;2023-05-19T10:13:09;99122.38;;;12.53;88.57
41624;BME280;27319;50.306;18.926;2023-05-19T10:16:13;99114.78;;;12.49;88.41
41624;BME280;27319;50.306;18.926;2023-05-19T10:19:25;99125.75;;;12.55;88.84
41624;BME280;27319;50.306;18.926;2023-05-19T10:22:27;99124.00;;;12.72;87.73
41624;BME280;27319;50.306;18.926;2023-05-19T10:25:29;99117.72;;;12.63;88.43
41624;BME280;27319;50.306;18.926;2023-05-19T10:28:54;99117.16;;;12.77;88.37
41624;BME280;27319;50.306;18.926;2023-05-19T10:32:55;99111.25;;;12.82;88.56
41624;BME280;27319;50.306;18.926;2023-05-19T10:37:12;99112.66;;;12.94;89.92
41624;BME280;27319;50.306;18.926;2023-05-19T10:45:25;99119.19;;;13.09;87.75
41624;BME280;27319;50.306;18.926;2023-05-19T10:49:21;99111.03;;;13.01;86.98
41624;BME280;27319;50.306;18.926;2023-05-19T10:53:26;99111.75;;;13.03;87.94
41624;BME280;27319;50.306;18.926;2023-05-19T10:57:26;99110.44;;;13.15;87.65
41624;BME280;27319;50.306;18.926;2023-05-19T11:01:36;99107.09;;;13.29;88.44
41624;BME280;27319;50.306;18.926;2023-05-19T11:05:14;99097.31;;;13.28;88.15
41624;BME280;27319;50.306;18.926;2023-05-19T11:08:16;99112.50;;;13.29;88.38
41624;BME280;27319;50.306;18.926;2023-05-19T11:11:52;99107.16;;;13.53;89.23
41624;BME280;27319;50.306;18.926;2023-05-19T11:15:55;99103.78;;;13.51;87.26
41624;BME280;27319;50.306;18.926;2023-05-19T11:19:56;99102.28;;;13.64;87.97
41624;BME280;27319;50.306;18.926;2023-05-19T11:23:57;99104.47;;;13.77;87.03
41624;BME280;27319;50.306;18.926;2023-05-19T11:27:57;99112.06;;;13.65;86.12
41624;BME280;27319;50.306;18.926;2023-05-19T11:31:59;99109.75;;;13.86;85.98
41624;BME280;27319;50.306;18.926;2023-05-19T11:35:59;99109.56;;;13.88;85.70
41624;BME280;27319;50.306;18.926;2023-05-19T11:40:01;99121.38;;;14.03;85.84
41624;BME280;27319;50.306;18.926;2023-05-19T11:44:01;99109.91;;;14.01;85.84
41624;BME280;27319;50.306;18.926;2023-05-19T11:48:02;99112.28;;;14.12;85.38
41624;BME280;27319;50.306;18.926;2023-05-19T11:52:03;99113.63;;;14.08;84.66
41624;BME280;27319;50.306;18.926;2023-05-19T11:55:45;99106.69;;;13.89;86.05
41624;BME280;27319;50.306;18.926;2023-05-19T11:58:46;99110.41;;;13.96;85.67
41624;BME280;27319;50.306;18.926;2023-05-19T12:01:47;99113.94;;;14.05;85.22
41624;BME280;27319;50.306;18.926;2023-05-19T12:04:48;99113.47;;;14.09;84.77
41624;BME280;27319;50.306;18.926;2023-05-19T12:07:50;99106.91;;;14.20;85.46
41624;BME280;27319;50.306;18.926;2023-05-19T12:10:51;99118.19;;;14.23;85.01
41624;BME280;27319;50.306;18.926;2023-05-19T12:13:54;99111.75;;;14.00;85.34
41624;BME280;27319;50.306;18.926;2023-05-19T12:16:57;99110.59;;;14.03;84.92
41624;BME280;27319;50.306;18.926;2023-05-19T12:20:19;99110.91;;;14.16;86.79
41624;BME280;27319;50.306;18.926;2023-05-19T12:24:20;99109.38;;;14.13;86.28
41624;BME280;27319;50.306;18.926;2023-05-19T12:28:21;99102.50;;;14.27;86.30
41624;BME280;27319;50.306;18.926;2023-05-19T12:32:03;99099.97;;;14.33;85.22
41624;BME280;27319;50.306;18.926;2023-05-19T12:35:35;99092.88;;;14.40;85.80
41624;BME280;27319;50.306;18.926;2023-05-19T12:39:25;99083.91;;;14.40;84.35
41624;BME280;27319;50.306;18.926;2023-05-19T12:43:26;99088.09;;;14.66;83.59
41624;BME280;27319;50.306;18.926;2023-05-19T12:47:30;99085.19;;;14.76;84.94
41624;BME280;27319;50.306;18.926;2023-05-19T12:51:40;99088.06;;;14.74;84.23
41624;BME280;27319;50.306;18.926;2023-05-19T12:55:41;99089.28;;;14.64;83.00
41624;BME280;27319;50.306;18.926;2023-05-19T12:59:41;99087.72;;;14.69;83.05
41624;BME280;27319;50.306;18.926;2023-05-19T13:03:22;99083.88;;;14.64;83.99
41624;BME280;27319;50.306;18.926;2023-05-19T13:06:23;99095.38;;;14.58;83.97
41624;BME280;27319;50.306;18.926;2023-05-19T13:09:44;99088.91;;;14.67;84.41
41624;BME280;27319;50.306;18.926;2023-05-19T13:13:45;99094.28;;;14.75;85.88
41624;BME280;27319;50.306;18.926;2023-05-19T13:17:45;99089.56;;;14.77;84.42
41624;BME280;27319;50.306;18.926;2023-05-19T13:21:46;99085.19;;;14.76;83.45
41624;BME280;27319;50.306;18.926;2023-05-19T13:25:48;99091.56;;;14.75;83.07
41624;BME280;27319;50.306;18.926;2023-05-19T13:29:48;99089.28;;;14.64;82.35
41624;BME280;27319;50.306;18.926;2023-05-19T13:33:48;99081.47;;;14.69;82.69
41624;BME280;27319;50.306;18.926;2023-05-19T13:37:49;99074.72;;;14.73;83.87
41624;BME280;27319;50.306;18.926;2023-05-19T13:41:50;99075.38;;;14.75;83.75
41624;BME280;27319;50.306;18.926;2023-05-19T13:45:51;99079.19;;;14.96;85.02
41624;BME280;27319;50.306;18.926;2023-05-19T13:49:52;99067.88;;;14.93;83.28
41624;BME280;27319;50.306;18.926;2023-05-19T13:53:53;99065.56;;;14.82;82.50
41624;BME280;27319;50.306;18.926;2023-05-19T13:57:54;99073.69;;;14.82;84.10
41624;BME280;27319;50.306;18.926;2023-05-19T14:01:55;99067.56;;;14.88;83.89
41624;BME280;27319;50.306;18.926;2023-05-19T14:05:55;99074.00;;;14.87;82.85
41624;BME280;27319;50.306;18.926;2023-05-19T14:09:56;99082.00;;;15.03;83.31
41624;BME280;27319;50.306;18.926;2023-05-19T14:13:37;99073.31;;;14.93;84.32
41624;BME280;27319;50.306;18.926;2023-05-19T14:16:58;99080.38;;;14.94;84.07
41624;BME280;27319;50.306;18.926;2023-05-19T14:20:39;99080.44;;;14.78;83.55
41624;BME280;27319;50.306;18.926;2023-05-19T14:23:59;99089.91;;;14.74;83.40
41624;BME280;27319;50.306;18.926;2023-05-19T14:28:00;99092.81;;;14.72;84.52
41624;BME280;27319;50.306;18.926;2023-05-19T14:31:24;99087.56;;;14.71;84.24
41624;BME280;27319;50.306;18.926;2023-05-19T14:35:25;99088.88;;;14.75;84.86
41624;BME280;27319;50.306;18.926;2023-05-19T14:39:26;99089.41;;;14.78;85.05
41624;BME280;27319;50.306;18.926;2023-05-19T14:43:27;99086.00;;;14.76;85.08
41624;BME280;27319;50.306;18.926;2023-05-19T14:47:28;99095.66;;;14.63;84.91
41624;BME280;27319;50.306;18.926;2023-05-19T14:51:09;99088.25;;;14.57;84.46
41624;BME280;27319;50.306;18.926;2023-05-19T14:54:09;99091.16;;;14.55;84.86
41624;BME280;27319;50.306;18.926;2023-05-19T14:57:11;99098.72;;;14.52;84.72
41624;BME280;27319;50.306;18.926;2023-05-19T15:00:12;99084.91;;;14.55;85.10
41624;BME280;27319;50.306;18.926;2023-05-19T15:03:13;99091.31;;;14.46;84.92
41624;BME280;27319;50.306;18.926;2023-05-19T15:06:34;99092.38;;;14.37;85.99
41624;BME280;27319;50.306;18.926;2023-05-19T15:10:16;99080.03;;;14.34;85.41
41624;BME280;27319;50.306;18.926;2023-05-19T15:14:16;99079.34;;;14.40;86.29
41624;BME280;27319;50.306;18.926;2023-05-19T15:18:17;99080.38;;;14.39;86.73
41624;BME280;27319;50.306;18.926;2023-05-19T15:22:18;99080.72;;;14.36;86.69
41624;BME280;27319;50.306;18.926;2023-05-19T15:26:19;99082.91;;;14.41;86.43
41624;BME280;27319;50.306;18.926;2023-05-19T15:30:20;99084.44;;;14.43;85.69
41624;BME280;27319;50.306;18.926;2023-05-19T15:34:01;99079.53;;;14.39;85.42
41624;BME280;27319;50.306;18.926;2023-05-19T15:37:02;99081.25;;;14.24;85.68
41624;BME280;27319;50.306;18.926;2023-05-19T15:40:03;99082.56;;;14.28;86.87
41624;BME280;27319;50.306;18.926;2023-05-19T15:43:04;99084.59;;;14.18;86.63
41624;BME280;27319;50.306;18.926;2023-05-19T15:46:06;99075.47;;;14.11;86.94
41624;BME280;27319;50.306;18.926;2023-05-19T15:49:07;99074.97;;;14.07;85.82
41624;BME280;27319;50.306;18.926;2023-05-19T15:52:08;99073.47;;;13.97;87.22
41624;BME280;27319;50.306;18.926;2023-05-19T15:55:29;99070.59;;;13.98;87.48
41624;BME280;27319;50.306;18.926;2023-05-19T15:59:29;99078.50;;;14.00;86.86
41624;BME280;27319;50.306;18.926;2023-05-19T16:03:10;99080.53;;;13.98;87.38
41624;BME280;27319;50.306;18.926;2023-05-19T16:06:12;99071.09;;;13.86;88.33
41624;BME280;27319;50.306;18.926;2023-05-19T16:09:13;99074.16;;;13.91;87.15
41624;BME280;27319;50.306;18.926;2023-05-19T16:12:33;99078.88;;;13.89;87.52
41624;BME280;27319;50.306;18.926;2023-05-19T16:16:34;99077.50;;;13.77;87.89
41624;BME280;27319;50.306;18.926;2023-05-19T16:20:15;99075.66;;;13.77;88.74
41624;BME280;27319;50.306;18.926;2023-05-19T16:23:16;99082.06;;;13.84;88.06
41624;BME280;27319;50.306;18.926;2023-05-19T16:26:37;99082.22;;;13.75;88.37
41624;BME280;27319;50.306;18.926;2023-05-19T16:30:37;99096.38;;;13.77;88.33
41624;BME280;27319;50.306;18.926;2023-05-19T16:34:38;99090.00;;;13.78;87.71
41624;BME280;27319;50.306;18.926;2023-05-19T16:38:39;99101.47;;;13.72;88.55
41624;BME280;27319;50.306;18.926;2023-05-19T16:42:36;99095.88;;;13.57;88.10
41624;BME280;27319;50.306;18.926;2023-05-19T16:46:37;99090.63;;;13.48;89.92
41624;BME280;27319;50.306;18.926;2023-05-19T16:50:18;99090.97;;;13.53;89.38
41624;BME280;27319;50.306;18.926;2023-05-19T16:53:18;99093.97;;;13.42;89.80
41624;BME280;27319;50.306;18.926;2023-05-19T16:56:19;99081.00;;;13.37;89.77
41624;BME280;27319;50.306;18.926;2023-05-19T16:59:41;99089.94;;;13.38;89.78
41624;BME280;27319;50.306;18.926;2023-05-19T17:03:42;99093.63;;;13.29;90.23
41624;BME280;27319;50.306;18.926;2023-05-19T17:07:23;99086.84;;;13.25;90.78
41624;BME280;27319;50.306;18.926;2023-05-19T17:10:24;99087.84;;;13.16;90.74
41624;BME280;27319;50.306;18.926;2023-05-19T17:13:25;99091.25;;;13.26;90.28
41624;BME280;27319;50.306;18.926;2023-05-19T17:16:27;99089.41;;;13.26;89.90
41624;BME280;27319;50.306;18.926;2023-05-19T17:19:29;99098.66;;;13.24;89.98
41624;BME280;27319;50.306;18.926;2023-05-19T17:22:29;99093.75;;;13.11;91.38
41624;BME280;27319;50.306;18.926;2023-05-19T17:25:31;99093.53;;;13.05;91.31
41624;BME280;27319;50.306;18.926;2023-05-19T17:28:33;99089.19;;;13.12;90.28
41624;BME280;27319;50.306;18.926;2023-05-19T17:31:35;99093.25;;;13.16;90.31
41624;BME280;27319;50.306;18.926;2023-05-19T17:34:35;99089.47;;;13.01;90.51
41624;BME280;27319;50.306;18.926;2023-05-19T17:37:36;99094.72;;;13.02;91.12
41624;BME280;27319;50.306;18.926;2023-05-19T17:40:37;99092.88;;;13.03;90.66
41624;BME280;27319;50.306;18.926;2023-05-19T17:43:40;99100.78;;;13.04;91.21
41624;BME280;27319;50.306;18.926;2023-05-19T17:47:00;99095.72;;;13.01;91.41
41624;BME280;27319;50.306;18.926;2023-05-19T17:51:02;99100.97;;;13.11;91.06
41624;BME280;27319;50.306;18.926;2023-05-19T17:55:03;99098.91;;;12.97;91.34
41624;BME280;27319;50.306;18.926;2023-05-19T17:59:04;99107.59;;;12.91;91.31
41624;BME280;27319;50.306;18.926;2023-05-19T18:02:45;99111.38;;;12.98;91.98
41624;BME280;27319;50.306;18.926;2023-05-19T18:05:46;99117.78;;;12.97;91.25
41624;BME280;27319;50.306;18.926;2023-05-19T18:08:48;99103.81;;;13.01;91.64
41624;BME280;27319;50.306;18.926;2023-05-19T18:12:28;99106.16;;;13.04;91.05
41624;BME280;27319;50.306;18.926;2023-05-19T18:16:29;99124.50;;;13.01;90.47
41624;BME280;27319;50.306;18.926;2023-05-19T18:20:30;99128.56;;;12.97;91.64
41624;BME280;27319;50.306;18.926;2023-05-19T18:24:31;99123.84;;;12.99;90.87
41624;BME280;27319;50.306;18.926;2023-05-19T18:28:31;99131.53;;;12.94;90.82
41624;BME280;27319;50.306;18.926;2023-05-19T18:32:32;99126.13;;;12.94;91.23
41624;BME280;27319;50.306;18.926;2023-05-19T18:36:13;99128.56;;;12.97;91.06
41624;BME280;27319;50.306;18.926;2023-05-19T18:39:15;99139.63;;;12.94;90.78
41624;BME280;27319;50.306;18.926;2023-05-19T18:42:17;99138.06;;;12.83;91.63
41624;BME280;27319;50.306;18.926;2023-05-19T18:45:17;99141.44;;;12.93;91.04